createdAt,value
2023-04-08T00:01:32.347Z,13.38
2023-04-08T00:04:00.268Z,14.00
2023-04-08T00:06:28.727Z,13.23
2023-04-08T00:08:56.444Z,15.68
2023-04-08T00:11:24.113Z,14.52
2023-04-08T00:13:51.937Z,14.93
2023-04-08T00:16:21.082Z,14.25
2023-04-08T00:18:49.334Z,13.75
2023-04-08T00:21:21.003Z,15.57
2023-04-08T00:23:48.815Z,14.38
2023-04-08T00:26:16.616Z,14.15
2023-04-08T00:28:45.168Z,13.77
2023-04-08T00:31:13.178Z,15.68
2023-04-08T00:33:42.500Z,14.15
2023-04-08T00:36:11.878Z,14.57
2023-04-08T00:38:39.622Z,14.63
2023-04-08T00:41:07.591Z,15.13
2023-04-08T00:43:35.491Z,13.98
2023-04-08T00:46:03.608Z,13.43
2023-04-08T00:48:32.373Z,15.05
2023-04-08T00:51:02.154Z,14.90
2023-04-08T00:53:32.608Z,15.32
2023-04-08T00:56:01.614Z,16.80
2023-04-08T00:58:30.660Z,17.17
2023-04-08T01:01:04.562Z,16.40
2023-04-08T01:03:42.994Z,15.90
2023-04-08T01:06:23.588Z,15.75
2023-04-08T01:08:53.382Z,15.52
2023-04-08T01:11:22.379Z,15.65
2023-04-08T01:13:55.276Z,15.95
2023-04-08T01:16:25.706Z,16.30
2023-04-08T01:18:55.358Z,16.88
2023-04-08T01:21:25.676Z,16.20
2023-04-08T01:24:02.081Z,16.95
2023-04-08T01:26:31.856Z,16.10
2023-04-08T01:29:03.099Z,17.50
2023-04-08T01:31:32.900Z,19.52
2023-04-08T01:34:02.552Z,18.98
2023-04-08T01:36:33.401Z,18.33
2023-04-08T01:39:05.467Z,19.92
2023-04-08T01:41:37.106Z,20.05
2023-04-08T01:44:05.884Z,21.27
2023-04-08T01:46:34.735Z,19.10
2023-04-08T01:49:04.751Z,19.95
2023-04-08T01:51:32.933Z,21.90
2023-04-08T01:54:00.922Z,21.42
2023-04-08T01:56:30.742Z,19.65
2023-04-08T01:59:01.924Z,20.08
2023-04-08T02:01:32.785Z,22.40
2023-04-08T02:04:01.925Z,22.75
2023-04-08T02:06:31.112Z,22.05
2023-04-08T02:09:00.648Z,22.40
2023-04-08T02:11:29.394Z,20.95
2023-04-08T02:13:59.968Z,20.40
2023-04-08T02:16:35.459Z,21.58
2023-04-08T02:19:11.019Z,23.30
2023-04-08T02:21:45.503Z,21.75
2023-04-08T02:24:15.932Z,22.05
2023-04-08T02:26:46.179Z,20.85
2023-04-08T02:29:17.217Z,24.58
2023-04-08T02:31:46.507Z,19.98
2023-04-08T02:34:15.997Z,22.27
2023-04-08T02:36:46.132Z,21.30
2023-04-08T02:39:14.209Z,21.60
2023-04-08T02:41:42.206Z,22.15
2023-04-08T02:44:10.969Z,21.77
2023-04-08T02:46:43.385Z,20.23
2023-04-08T02:49:11.146Z,19.83
2023-04-08T02:51:38.915Z,19.40
2023-04-08T02:54:06.622Z,22.42
2023-04-08T02:56:34.532Z,21.10
2023-04-08T02:59:02.678Z,20.30
2023-04-08T03:01:30.996Z,24.27
2023-04-08T03:04:00.198Z,21.08
2023-04-08T03:06:28.400Z,22.40
2023-04-08T03:08:56.171Z,20.83
2023-04-08T03:11:23.799Z,21.10
2023-04-08T03:13:51.453Z,21.83
2023-04-08T03:16:19.613Z,22.25
2023-04-08T03:18:47.490Z,20.75
2023-04-08T03:21:16.682Z,23.20
2023-04-08T03:23:44.861Z,19.73
2023-04-08T03:26:12.679Z,23.42
2023-04-08T03:28:40.612Z,20.70
2023-04-08T03:31:08.385Z,22.15
2023-04-08T03:33:36.441Z,23.08
2023-04-08T03:36:04.301Z,21.73
2023-04-08T03:38:33.548Z,24.60
2023-04-08T03:41:01.176Z,20.67
2023-04-08T03:43:29.006Z,23.02
2023-04-08T03:45:57.142Z,24.40
2023-04-08T03:48:24.884Z,23.10
2023-04-08T03:50:52.953Z,23.80
2023-04-08T03:53:20.820Z,23.02
2023-04-08T03:55:52.128Z,24.83
2023-04-08T03:58:19.889Z,21.88
2023-04-08T04:00:48.170Z,22.17
2023-04-08T04:03:16.390Z,24.48
2023-04-08T04:05:44.694Z,24.38
2023-04-08T04:08:12.371Z,23.63
2023-04-08T04:10:40.096Z,25.08
2023-04-08T04:13:09.136Z,23.33
2023-04-08T04:15:39.903Z,23.67
2023-04-08T04:18:07.678Z,25.90
2023-04-08T04:20:36.270Z,23.30
2023-04-08T04:23:03.977Z,24.30
2023-04-08T04:25:31.873Z,25.83
2023-04-08T04:28:00.031Z,25.70
2023-04-08T04:30:29.632Z,24.83
2023-04-08T04:32:57.586Z,25.50
2023-04-08T04:35:25.592Z,26.27
2023-04-08T04:37:53.662Z,22.95
2023-04-08T04:40:21.608Z,24.42
2023-04-08T04:42:49.360Z,24.77
2023-04-08T04:45:17.250Z,22.83
2023-04-08T04:47:47.068Z,23.92
2023-04-08T04:50:15.634Z,24.35
2023-04-08T04:52:43.426Z,22.33
2023-04-08T04:55:11.786Z,21.83
2023-04-08T04:57:39.924Z,22.17
2023-04-08T05:00:09.606Z,22.08
2023-04-08T05:02:37.666Z,24.85
2023-04-08T05:05:07.844Z,24.15
2023-04-08T05:07:37.272Z,22.60
2023-04-08T05:10:05.600Z,21.27
2023-04-08T05:12:33.291Z,24.92
2023-04-08T05:15:02.081Z,23.05
2023-04-08T05:17:29.785Z,24.38
2023-04-08T05:19:58.558Z,20.80
2023-04-08T05:22:27.835Z,22.67
2023-04-08T05:24:55.853Z,22.40
2023-04-08T05:27:23.631Z,22.77
2023-04-08T05:29:51.621Z,20.42
2023-04-08T05:32:19.698Z,19.33
2023-04-08T05:34:47.470Z,21.05
2023-04-08T05:37:15.572Z,22.38
2023-04-08T05:39:44.547Z,20.63
2023-04-08T05:42:13.770Z,20.20
2023-04-08T05:44:43.998Z,19.45
2023-04-08T05:47:11.958Z,20.67
2023-04-08T05:49:40.047Z,23.00
2023-04-08T05:52:08.207Z,19.60
2023-04-08T05:54:36.098Z,20.17
2023-04-08T05:57:05.369Z,18.95
2023-04-08T05:59:33.099Z,17.48
2023-04-08T06:02:00.951Z,19.33
2023-04-08T06:04:29.188Z,19.73
2023-04-08T06:06:59.623Z,20.40
2023-04-08T06:09:27.497Z,17.42
2023-04-08T06:11:57.242Z,17.83
2023-04-08T06:14:26.400Z,19.42
2023-04-08T06:16:58.016Z,17.90
2023-04-08T06:19:25.945Z,18.20
2023-04-08T06:21:59.305Z,18.27
2023-04-08T06:24:27.691Z,17.80
2023-04-08T06:26:55.810Z,17.92
2023-04-08T06:29:23.742Z,16.65
2023-04-08T06:31:52.924Z,17.15
2023-04-08T06:34:21.386Z,16.65
2023-04-08T06:36:50.289Z,17.42
2023-04-08T06:39:19.506Z,17.08
2023-04-08T06:41:47.438Z,16.17
2023-04-08T06:44:28.836Z,15.38
2023-04-08T06:46:58.200Z,17.17
2023-04-08T06:49:27.063Z,16.05
2023-04-08T06:51:54.816Z,15.18
2023-04-08T06:54:22.498Z,15.98
2023-04-08T06:56:50.493Z,16.30
2023-04-08T06:59:18.696Z,15.88
2023-04-08T07:01:47.076Z,17.25
2023-04-08T07:04:16.377Z,16.70
2023-04-08T07:06:45.936Z,16.92
2023-04-08T07:09:14.457Z,17.42
2023-04-08T07:11:42.303Z,16.23
2023-04-08T07:14:10.466Z,19.52
2023-04-08T07:16:38.136Z,15.43
2023-04-08T07:19:06.754Z,14.60
2023-04-08T07:21:35.856Z,15.65
2023-04-08T07:24:03.838Z,12.60
2023-04-08T07:26:31.679Z,12.55
2023-04-08T07:28:59.379Z,13.40
2023-04-08T07:31:27.238Z,15.15
2023-04-08T07:33:54.959Z,15.45
2023-04-08T07:36:22.736Z,12.77
2023-04-08T07:38:52.482Z,13.63
2023-04-08T07:41:20.944Z,13.68
2023-04-08T07:43:48.729Z,12.00
2023-04-08T07:46:16.452Z,12.63
2023-04-08T07:48:44.409Z,12.88
2023-04-08T07:51:12.057Z,14.02
2023-04-08T07:53:40.535Z,13.05
2023-04-08T07:56:14.322Z,14.50
2023-04-08T07:58:43.001Z,13.05
2023-04-08T08:01:22.355Z,12.95
2023-04-08T08:03:51.262Z,13.85
2023-04-08T08:06:19.839Z,15.02
2023-04-08T08:08:47.551Z,12.75
2023-04-08T08:11:16.692Z,14.60
2023-04-08T08:13:44.329Z,13.23
2023-04-08T08:16:12.681Z,16.67
2023-04-08T08:18:41.042Z,14.25
2023-04-08T08:21:09.299Z,14.13
2023-04-08T08:23:37.571Z,15.73
2023-04-08T08:26:07.540Z,14.98
2023-04-08T08:28:37.119Z,15.38
2023-04-08T08:31:06.051Z,16.35
2023-04-08T08:33:34.298Z,15.00
2023-04-08T08:36:02.186Z,15.95
2023-04-08T08:38:30.078Z,15.77
2023-04-08T08:40:58.137Z,16.73
2023-04-08T08:43:27.312Z,17.95
2023-04-08T08:45:56.724Z,18.40
2023-04-08T08:48:24.755Z,18.00
2023-04-08T08:50:52.586Z,19.40
2023-04-08T08:53:20.916Z,18.38
2023-04-08T08:58:19.632Z,19.05
2023-04-08T09:00:47.689Z,17.00
2023-04-08T09:03:19.741Z,16.88
2023-04-08T09:05:52.560Z,19.17
2023-04-08T09:08:27.946Z,15.80
2023-04-08T09:10:56.496Z,16.95
2023-04-08T09:13:24.905Z,17.50
2023-04-08T09:16:03.902Z,17.52
2023-04-08T09:18:34.242Z,16.85
2023-04-08T09:21:02.704Z,18.63
2023-04-08T09:23:39.901Z,15.50
2023-04-08T09:26:12.383Z,16.23
2023-04-08T09:28:41.720Z,17.63
2023-04-08T09:31:23.662Z,16.77
2023-04-08T09:33:54.840Z,16.25
2023-04-08T09:36:22.763Z,16.23
2023-04-08T09:38:50.567Z,16.05
2023-04-08T09:41:20.697Z,16.77
2023-04-08T09:43:50.857Z,15.45
2023-04-08T09:46:20.778Z,16.77
2023-04-08T09:49:03.770Z,16.60
2023-04-08T09:51:37.552Z,17.05
2023-04-08T09:54:13.404Z,17.20
2023-04-08T09:56:45.358Z,18.02
2023-04-08T09:59:17.507Z,17.02
2023-04-08T10:01:51.368Z,17.30
2023-04-08T10:04:23.015Z,17.25
2023-04-08T10:06:55.621Z,16.85
2023-04-08T10:09:24.241Z,16.75
2023-04-08T10:11:53.595Z,16.20
2023-04-08T10:14:22.542Z,17.40
2023-04-08T10:16:50.336Z,17.02
2023-04-08T10:19:41.782Z,16.42
2023-04-08T10:22:45.994Z,16.00
2023-04-08T10:25:32.682Z,15.82
2023-04-08T10:28:01.228Z,16.10
2023-04-08T10:30:42.596Z,16.20
2023-04-08T10:33:15.294Z,16.05
2023-04-08T10:35:48.596Z,16.58
2023-04-08T10:38:17.681Z,15.32
2023-04-08T10:40:45.937Z,15.73
2023-04-08T10:43:15.902Z,15.25
2023-04-08T10:45:47.951Z,16.27
2023-04-08T10:48:18.826Z,17.35
2023-04-08T10:50:54.270Z,17.02
2023-04-08T10:53:27.666Z,15.52
2023-04-08T10:55:55.468Z,14.90
2023-04-08T10:58:23.551Z,14.13
2023-04-08T11:00:51.320Z,14.32
2023-04-08T11:03:20.793Z,14.82
2023-04-08T11:05:50.837Z,14.20
2023-04-08T11:08:20.853Z,15.70
2023-04-08T11:10:49.949Z,14.95
2023-04-08T11:13:18.021Z,13.93
2023-04-08T11:15:45.933Z,14.52
2023-04-08T11:18:14.552Z,13.32
2023-04-08T11:20:42.300Z,15.02
2023-04-08T11:23:15.050Z,13.27
2023-04-08T11:25:43.535Z,15.07
2023-04-08T11:28:11.945Z,14.65
2023-04-08T11:30:40.938Z,14.48
2023-04-08T11:33:09.144Z,14.02
2023-04-08T11:35:41.266Z,13.43
2023-04-08T11:38:09.909Z,13.25
2023-04-08T11:40:40.018Z,12.68
2023-04-08T11:43:11.514Z,11.98
2023-04-08T11:45:41.026Z,12.57
2023-04-08T11:48:12.428Z,11.68
2023-04-08T11:50:40.520Z,12.90
2023-04-08T11:53:18.611Z,11.43
2023-04-08T11:55:48.585Z,11.13
2023-04-08T11:58:17.015Z,13.65
2023-04-08T12:00:45.564Z,12.98
2023-04-08T12:03:13.786Z,12.30
2023-04-08T12:05:42.627Z,13.02
2023-04-08T12:08:11.176Z,12.32
2023-04-08T12:10:38.956Z,12.18
2023-04-08T12:13:08.526Z,12.00
2023-04-08T12:15:36.796Z,10.50
2023-04-08T12:18:05.903Z,12.57
2023-04-08T12:20:33.868Z,11.52
2023-04-08T12:23:01.848Z,10.52
2023-04-08T12:25:31.720Z,9.70
2023-04-08T12:27:59.706Z,11.00
2023-04-08T12:30:29.160Z,9.75
2023-04-08T12:32:58.066Z,12.07
2023-04-08T12:35:26.192Z,10.40
2023-04-08T12:37:54.216Z,10.70
2023-04-08T12:40:22.070Z,10.93
2023-04-08T12:42:50.037Z,10.05
2023-04-08T12:45:18.054Z,11.25
2023-04-08T12:47:47.320Z,10.30
2023-04-08T12:50:15.990Z,9.77
2023-04-08T12:52:43.817Z,10.20
2023-04-08T12:55:11.792Z,9.35
2023-04-08T12:57:39.923Z,10.43
2023-04-08T13:00:11.010Z,10.35
2023-04-08T13:02:39.071Z,10.73
2023-04-08T13:05:08.988Z,10.75
2023-04-08T13:07:37.361Z,11.38
2023-04-08T13:10:07.046Z,10.20
2023-04-08T13:12:34.941Z,8.90
2023-04-08T13:15:03.672Z,9.75
2023-04-08T13:17:31.931Z,9.88
2023-04-08T13:20:00.809Z,11.70
2023-04-08T13:22:29.991Z,10.52
2023-04-08T13:24:58.176Z,10.75
2023-04-08T13:27:26.179Z,10.80
2023-04-08T13:29:54.060Z,10.25
2023-04-08T13:32:21.897Z,11.10
2023-04-08T13:34:49.707Z,10.85
2023-04-08T13:37:17.890Z,11.10
2023-04-08T13:39:47.734Z,10.45
2023-04-08T13:42:15.498Z,9.70
2023-04-08T13:44:43.518Z,11.05
2023-04-08T13:47:11.566Z,10.98
2023-04-08T13:49:40.992Z,11.27
2023-04-08T13:52:08.854Z,10.30
2023-04-08T13:54:37.252Z,10.95
2023-04-08T13:57:06.882Z,10.00
2023-04-08T13:59:34.966Z,10.02
2023-04-08T14:02:02.870Z,10.27
2023-04-08T14:04:30.921Z,10.60
2023-04-08T14:06:59.336Z,11.30
2023-04-08T14:09:27.341Z,10.35
2023-04-08T14:11:56.332Z,10.05
2023-04-08T14:14:25.695Z,11.30
2023-04-08T14:16:53.776Z,12.88
2023-04-08T14:19:21.731Z,9.95
2023-04-08T14:21:49.822Z,9.40
2023-04-08T14:24:18.661Z,8.98
2023-04-08T14:26:46.738Z,10.23
2023-04-08T14:29:14.585Z,7.97
2023-04-08T14:31:43.864Z,10.05
2023-04-08T14:34:11.956Z,7.65
2023-04-08T14:36:39.901Z,9.07
2023-04-08T14:39:07.702Z,10.00
2023-04-08T14:41:35.550Z,10.30
2023-04-08T14:44:04.462Z,9.23
2023-04-08T14:46:32.473Z,7.97
2023-04-08T14:49:02.009Z,6.40
2023-04-08T14:51:30.601Z,8.05
2023-04-08T14:53:58.949Z,6.65
2023-04-08T14:56:26.883Z,7.43
2023-04-08T14:58:55.383Z,8.07
2023-04-08T15:01:23.263Z,8.52
2023-04-08T15:03:51.769Z,7.38
2023-04-08T15:06:21.786Z,6.43
2023-04-08T15:08:50.058Z,8.63
2023-04-08T15:11:19.519Z,7.75
2023-04-08T15:13:47.808Z,8.88
2023-04-08T15:16:15.646Z,7.45
2023-04-08T15:18:43.943Z,7.72
2023-04-08T15:21:11.736Z,8.55
2023-04-08T15:23:42.088Z,7.00
2023-04-08T15:26:11.076Z,6.43
2023-04-08T15:28:40.440Z,7.93
2023-04-08T15:31:08.464Z,7.57
2023-04-08T15:33:39.028Z,6.85
2023-04-08T15:36:07.449Z,6.22
2023-04-08T15:38:36.420Z,8.02
2023-04-08T15:41:06.120Z,6.18
2023-04-08T15:43:34.530Z,8.40
2023-04-08T15:46:02.733Z,7.78
2023-04-08T15:48:30.603Z,7.32
2023-04-08T15:50:58.799Z,7.78
2023-04-08T15:53:27.268Z,8.25
2023-04-08T15:55:55.026Z,7.03
2023-04-08T15:58:24.093Z,8.02
2023-04-08T16:00:52.655Z,8.32
2023-04-08T16:03:20.432Z,7.28
2023-04-08T16:05:48.331Z,8.25
2023-04-08T16:08:16.675Z,8.52
2023-04-08T16:10:44.364Z,8.63
2023-04-08T16:13:12.777Z,8.05
2023-04-08T16:15:41.849Z,7.63
2023-04-08T16:18:10.076Z,8.60
2023-04-08T16:20:38.276Z,7.95
2023-04-08T16:23:06.260Z,7.05
2023-04-08T16:25:34.133Z,7.00
2023-04-08T16:28:02.005Z,8.20
2023-04-08T16:30:29.857Z,7.57
2023-04-08T16:32:58.997Z,6.55
2023-04-08T16:35:27.236Z,8.30
2023-04-08T16:37:55.450Z,7.40
2023-04-08T16:40:23.359Z,9.55
2023-04-08T16:42:51.072Z,9.15
2023-04-08T16:45:19.355Z,10.73
2023-04-08T16:47:47.401Z,8.77
2023-04-08T16:50:16.852Z,8.95
2023-04-08T16:52:49.346Z,7.20
2023-04-08T16:55:18.191Z,7.32
2023-04-08T16:57:45.874Z,8.10
2023-04-08T17:00:16.036Z,9.82
2023-04-08T17:02:44.961Z,8.40
2023-04-08T17:05:12.989Z,9.05
2023-04-08T17:07:42.014Z,7.95
2023-04-08T17:10:11.097Z,9.70
2023-04-08T17:12:38.943Z,9.32
2023-04-08T17:15:08.146Z,8.75
2023-04-08T17:17:35.950Z,9.25
2023-04-08T17:20:04.159Z,8.45
2023-04-08T17:22:32.065Z,8.57
2023-04-08T17:25:01.185Z,9.07
2023-04-08T17:27:28.981Z,8.80
2023-04-08T17:29:58.159Z,10.63
2023-04-08T17:32:27.753Z,11.27
2023-04-08T17:34:55.573Z,10.88
2023-04-08T17:37:23.671Z,9.80
2023-04-08T17:39:51.652Z,10.77
2023-04-08T17:42:22.773Z,9.70
2023-04-08T17:44:51.072Z,10.85
2023-04-08T17:47:21.091Z,11.20
2023-04-08T17:49:49.089Z,10.70
2023-04-08T17:52:17.204Z,10.63
2023-04-08T17:54:45.494Z,10.45
2023-04-08T17:57:13.548Z,10.52
2023-04-08T17:59:42.641Z,9.43
2023-04-08T18:02:10.772Z,10.32
2023-04-08T18:04:38.913Z,11.13
2023-04-08T18:07:06.850Z,10.05
2023-04-08T18:09:35.051Z,12.18
2023-04-08T18:12:03.196Z,13.25
2023-04-08T18:14:32.108Z,14.45
2023-04-08T18:17:01.503Z,16.92
2023-04-08T18:19:29.499Z,18.48
2023-04-08T18:21:57.332Z,17.30
2023-04-08T18:24:25.209Z,18.33
2023-04-08T18:27:01.360Z,16.75
2023-04-08T18:29:31.848Z,14.35
2023-04-08T18:32:01.244Z,12.40
2023-04-08T18:34:31.849Z,14.38
2023-04-08T18:37:00.730Z,14.40
2023-04-08T18:39:28.635Z,12.65
2023-04-08T18:41:57.388Z,16.00
2023-04-08T18:44:25.419Z,14.23
2023-04-08T18:46:53.453Z,14.93
2023-04-08T18:49:23.450Z,13.85
2023-04-08T18:52:01.183Z,13.93
2023-04-08T18:54:30.721Z,13.40
2023-04-08T18:56:58.738Z,13.98
2023-04-08T18:59:28.249Z,14.07
2023-04-08T19:01:56.486Z,12.63
2023-04-08T19:04:25.933Z,13.20
2023-04-08T19:06:54.206Z,15.13
2023-04-08T19:09:23.630Z,15.05
2023-04-08T19:11:51.503Z,14.43
2023-04-08T19:14:19.551Z,15.65
2023-04-08T19:16:47.850Z,16.35
2023-04-08T19:19:16.264Z,16.00
2023-04-08T19:21:45.638Z,15.43
2023-04-08T19:24:13.478Z,15.82
2023-04-08T19:26:41.635Z,16.45
2023-04-08T19:29:11.937Z,20.23
2023-04-08T19:31:41.144Z,17.90
2023-04-08T19:34:09.089Z,16.45
2023-04-08T19:36:36.856Z,13.70
2023-04-08T19:39:06.919Z,14.93
2023-04-08T19:41:34.967Z,17.65
2023-04-08T19:44:02.790Z,13.77
2023-04-08T19:46:31.108Z,17.05
2023-04-08T19:48:59.079Z,14.70
2023-04-08T19:51:27.467Z,13.60
2023-04-08T19:53:55.343Z,12.80
2023-04-08T19:56:25.557Z,11.02
2023-04-08T19:58:53.561Z,12.13
2023-04-08T20:01:24.711Z,10.18
2023-04-08T20:03:52.818Z,8.70
2023-04-08T20:06:23.211Z,9.13
2023-04-08T20:08:53.499Z,10.15
2023-04-08T20:11:22.307Z,7.82
2023-04-08T20:13:51.771Z,7.53
2023-04-08T20:16:21.052Z,7.05
2023-04-08T20:18:49.261Z,7.40
2023-04-08T20:21:18.264Z,6.93
2023-04-08T20:23:46.374Z,8.60
2023-04-08T20:26:14.708Z,7.63
2023-04-08T20:28:45.102Z,7.80
2023-04-08T20:31:14.871Z,7.55
2023-04-08T20:33:45.571Z,6.85
2023-04-08T20:36:13.857Z,6.45
2023-04-08T20:38:42.466Z,6.55
2023-04-08T20:41:12.104Z,6.68
2023-04-08T20:43:40.291Z,6.57
2023-04-08T20:46:08.241Z,8.65
2023-04-08T20:48:38.018Z,9.32
2023-04-08T20:51:06.087Z,7.28
2023-04-08T20:53:34.767Z,8.20
2023-04-08T20:56:03.027Z,9.45
2023-04-08T20:58:30.983Z,6.72
2023-04-08T21:00:59.079Z,6.75
2023-04-08T21:03:28.687Z,6.80
2023-04-08T21:05:58.735Z,7.15
2023-04-08T21:08:26.498Z,6.50
2023-04-08T21:10:54.752Z,6.28
2023-04-08T21:13:22.749Z,6.22
2023-04-08T21:15:50.610Z,9.07
2023-04-08T21:18:18.879Z,6.75
2023-04-08T21:20:47.108Z,7.22
2023-04-08T21:23:16.610Z,7.57
2023-04-08T21:25:44.563Z,6.97
2023-04-08T21:28:12.462Z,8.02
2023-04-08T21:30:40.392Z,7.10
2023-04-08T21:33:08.229Z,7.65
2023-04-08T21:35:36.317Z,8.30
2023-04-08T21:38:04.707Z,13.10
2023-04-08T21:40:34.277Z,12.82
2023-04-08T21:43:02.783Z,12.00
2023-04-08T21:45:31.000Z,9.00
2023-04-08T21:47:58.840Z,8.10
2023-04-08T21:50:26.773Z,8.13
2023-04-08T21:52:54.735Z,8.55
2023-04-08T21:55:22.707Z,8.43
2023-04-08T21:57:51.837Z,8.38
2023-04-08T22:00:19.887Z,7.53
2023-04-08T22:02:48.104Z,7.25
2023-04-08T22:05:16.001Z,7.65
2023-04-08T22:07:43.733Z,7.78
2023-04-08T22:10:12.752Z,7.85
2023-04-08T22:12:40.966Z,7.30
2023-04-08T22:15:11.372Z,7.70
2023-04-08T22:17:39.047Z,9.10
2023-04-08T22:20:07.677Z,7.38
2023-04-08T22:22:35.449Z,7.38
2023-04-08T22:25:03.133Z,8.70
2023-04-08T22:27:30.841Z,9.18
2023-04-08T22:29:58.511Z,7.82
2023-04-08T22:32:27.641Z,7.68
2023-04-08T22:34:55.545Z,8.93
2023-04-08T22:37:23.322Z,8.77
2023-04-08T22:39:51.607Z,8.45
2023-04-08T22:42:19.595Z,9.77
2023-04-08T22:44:47.765Z,9.18
2023-04-08T22:47:15.601Z,8.82
2023-04-08T22:49:44.716Z,8.82
2023-04-08T22:52:12.445Z,8.18
2023-04-08T22:54:40.199Z,8.13
2023-04-08T22:57:07.991Z,8.65
2023-04-08T22:59:36.088Z,8.27
2023-04-08T23:02:03.842Z,7.97
2023-04-08T23:04:31.731Z,9.63
2023-04-08T23:07:01.110Z,9.10
2023-04-08T23:09:28.788Z,10.07
2023-04-08T23:11:57.989Z,8.32
2023-04-08T23:14:26.047Z,8.45
2023-04-08T23:16:54.084Z,8.52
2023-04-08T23:19:22.121Z,7.43
2023-04-08T23:21:49.960Z,9.02
2023-04-08T23:24:19.068Z,8.23
2023-04-08T23:26:46.831Z,9.65
2023-04-08T23:29:14.573Z,9.13
2023-04-08T23:31:42.320Z,8.30
2023-04-08T23:34:10.363Z,8.32
2023-04-08T23:36:38.145Z,7.93
2023-04-08T23:39:06.368Z,9.43
2023-04-08T23:41:35.602Z,8.15
2023-04-08T23:44:03.781Z,9.20
2023-04-08T23:46:32.133Z,9.63
2023-04-08T23:48:59.989Z,7.93
2023-04-08T23:51:29.039Z,8.57
2023-04-08T23:53:56.977Z,8.63
2023-04-08T23:56:24.621Z,9.63
2023-04-08T23:58:54.014Z,10.65
